METAR Data
IDs: Format: Raw Decoded Include TAF

Data at: 0240 UTC 29 Nov 2020

METAR for:KCCY (Charles City/NE Iowa, IA, US)
Text:KCCY 290235Z AUTO 23006KT 10SM CLR 03/00 A2995 RMK AO2
Temperature: 3.0°C ( 37°F)
Dewpoint: 0.0°C ( 32°F) [RH = 81%]
Pressure (altimeter):29.95 inches Hg (1014.3 mb)
Winds:from the SW (230 degrees) at 7 MPH (6 knots; 3.1 m/s)
Visibility:10 or more sm (16+ km)
Ceiling:at least 12,000 feet AGL
Clouds:sky clear below 12,000 feet AGL
QC Flag:automated observation with no human augmentation